createdAt,value
2022-11-10T00:00:30.965Z,75.05
2022-11-10T00:03:07.697Z,75.26
2022-11-10T00:05:39.246Z,74.99
2022-11-10T00:08:08.504Z,75.50
2022-11-10T00:11:01.446Z,75.35
2022-11-10T00:13:59.180Z,75.43
2022-11-10T00:16:46.812Z,75.61
2022-11-10T00:19:13.825Z,76.57
2022-11-10T00:21:40.741Z,77.41
2022-11-10T00:24:10.152Z,77.36
2022-11-10T00:26:41.611Z,77.13
2022-11-10T00:29:13.399Z,77.57
2022-11-10T00:31:41.225Z,77.85
2022-11-10T00:34:14.005Z,77.81
2022-11-10T00:36:41.561Z,76.71
2022-11-10T00:39:11.765Z,76.83
2022-11-10T00:41:38.724Z,77.94
2022-11-10T00:44:07.681Z,77.82
2022-11-10T00:46:34.718Z,77.50
2022-11-10T00:49:04.081Z,78.67
2022-11-10T00:51:33.567Z,78.40
2022-11-10T00:54:00.467Z,77.85
2022-11-10T00:56:27.478Z,77.68
2022-11-10T00:58:54.388Z,78.52
2022-11-10T01:01:26.598Z,78.86
2022-11-10T01:03:54.206Z,79.65
2022-11-10T01:06:22.334Z,79.28
2022-11-10T01:08:54.359Z,78.90
2022-11-10T01:11:27.596Z,78.59
2022-11-10T01:13:59.084Z,78.78
2022-11-10T01:16:31.941Z,78.89
2022-11-10T01:19:01.787Z,79.14
2022-11-10T01:21:30.618Z,78.44
2022-11-10T01:23:57.824Z,79.69
2022-11-10T01:26:26.440Z,80.25
2022-11-10T01:28:53.405Z,80.71
2022-11-10T01:31:24.569Z,80.51
2022-11-10T01:33:56.058Z,80.33
2022-11-10T01:36:22.949Z,80.28
2022-11-10T01:38:49.887Z,80.37
2022-11-10T01:41:19.217Z,80.81
2022-11-10T01:43:48.678Z,81.25
2022-11-10T01:46:15.716Z,81.10
2022-11-10T01:48:51.306Z,81.03
2022-11-10T01:51:49.093Z,80.87
2022-11-10T01:54:28.477Z,81.58
2022-11-10T01:57:01.504Z,81.29
2022-11-10T01:59:37.966Z,80.39
2022-11-10T02:02:35.091Z,80.45
2022-11-10T02:05:06.984Z,81.18
2022-11-10T02:07:36.716Z,81.12
2022-11-10T02:10:14.476Z,81.47
2022-11-10T02:12:41.531Z,82.73
2022-11-10T02:15:13.689Z,82.69
2022-11-10T02:17:41.365Z,82.17
2022-11-10T02:20:13.616Z,82.62
2022-11-10T02:22:41.085Z,83.15
2022-11-10T02:25:09.039Z,82.69
2022-11-10T02:27:35.940Z,83.44
2022-11-10T02:30:05.516Z,84.59
2022-11-10T02:32:37.918Z,83.51
2022-11-10T02:35:05.747Z,83.44
2022-11-10T02:37:32.902Z,84.14
2022-11-10T02:39:59.967Z,85.67
2022-11-10T02:42:26.953Z,84.93
2022-11-10T02:44:57.025Z,85.45
2022-11-10T02:47:26.153Z,85.25
2022-11-10T02:49:53.057Z,84.88
2022-11-10T02:52:19.964Z,84.17
2022-11-10T02:54:46.853Z,84.89
2022-11-10T02:57:15.912Z,86.70
2022-11-10T02:59:45.798Z,85.74
2022-11-10T03:02:12.784Z,86.03
2022-11-10T03:04:39.666Z,85.21
2022-11-10T03:07:06.806Z,84.70
2022-11-10T03:09:36.158Z,85.59
2022-11-10T03:12:03.127Z,85.22
2022-11-10T03:14:34.680Z,84.93
2022-11-10T03:17:03.835Z,84.26
2022-11-10T03:19:30.675Z,84.94
2022-11-10T03:21:59.707Z,85.13
2022-11-10T03:24:26.667Z,85.91
2022-11-10T03:26:56.029Z,85.13
2022-11-10T03:29:25.447Z,86.02
2022-11-10T03:31:54.513Z,85.15
2022-11-10T03:34:31.542Z,84.93
2022-11-10T03:36:58.876Z,85.25
2022-11-10T03:39:25.804Z,84.79
2022-11-10T03:41:52.721Z,84.73
2022-11-10T03:44:21.962Z,84.53
2022-11-10T03:46:53.680Z,84.88
2022-11-10T03:49:23.146Z,86.33
2022-11-10T03:51:52.302Z,86.42
2022-11-10T03:54:19.213Z,85.54
2022-11-10T03:56:46.198Z,84.66
2022-11-10T03:59:15.204Z,84.00
2022-11-10T04:01:44.388Z,83.87
2022-11-10T04:04:31.680Z,84.85
2022-11-10T04:07:16.957Z,86.26
2022-11-10T04:09:46.122Z,84.67
2022-11-10T04:12:31.364Z,84.46
2022-11-10T04:15:16.546Z,85.05
2022-11-10T04:17:50.573Z,84.69
2022-11-10T04:20:19.974Z,85.50
2022-11-10T04:23:07.767Z,84.97
2022-11-10T04:25:56.932Z,84.72
2022-11-10T04:28:23.821Z,84.53
2022-11-10T04:30:50.774Z,85.05
2022-11-10T04:33:20.025Z,85.65
2022-11-10T04:35:47.124Z,85.42
2022-11-10T04:38:14.057Z,84.79
2022-11-10T04:40:40.934Z,85.99
2022-11-10T04:43:07.870Z,86.12
2022-11-10T04:45:37.289Z,85.75
2022-11-10T04:48:04.344Z,86.89
2022-11-10T04:50:32.305Z,87.57
2022-11-10T04:53:01.555Z,85.27
2022-11-10T04:55:28.438Z,84.44
2022-11-10T04:57:55.692Z,85.42
2022-11-10T05:00:23.422Z,85.37
2022-11-10T05:02:50.421Z,85.84
2022-11-10T05:05:17.340Z,87.26
2022-11-10T05:07:47.884Z,85.35
2022-11-10T05:10:17.994Z,84.97
2022-11-10T05:12:47.372Z,85.18
2022-11-10T05:15:14.448Z,86.64
2022-11-10T05:17:41.470Z,88.11
2022-11-10T05:20:09.379Z,88.19
2022-11-10T05:22:36.324Z,87.79
2022-11-10T05:25:03.276Z,86.45
2022-11-10T05:27:30.211Z,86.48
2022-11-10T05:29:57.143Z,85.95
2022-11-10T05:32:24.082Z,87.54
2022-11-10T05:34:50.933Z,87.24
2022-11-10T05:37:17.788Z,87.24
2022-11-10T05:39:49.633Z,86.47
2022-11-10T05:42:19.582Z,88.00
2022-11-10T05:44:48.781Z,87.76
2022-11-10T05:47:15.705Z,88.36
2022-11-10T05:49:45.212Z,89.04
2022-11-10T05:52:12.146Z,88.22
2022-11-10T05:54:43.819Z,88.29
2022-11-10T05:57:10.808Z,89.75
2022-11-10T05:59:40.229Z,89.35
2022-11-10T06:02:07.188Z,89.26
2022-11-10T06:04:34.077Z,89.58
2022-11-10T06:07:07.985Z,88.92
2022-11-10T06:09:35.510Z,89.05
2022-11-10T06:12:03.543Z,90.37
2022-11-10T06:14:30.628Z,91.30
2022-11-10T06:16:57.494Z,90.58
2022-11-10T06:19:26.694Z,92.32
2022-11-10T06:21:58.971Z,91.28
2022-11-10T06:24:30.755Z,91.46
2022-11-10T06:26:59.953Z,90.14
2022-11-10T06:29:27.210Z,91.56
2022-11-10T06:31:57.183Z,92.27
2022-11-10T06:34:24.235Z,90.83
2022-11-10T06:36:51.194Z,90.93
2022-11-10T06:39:20.157Z,88.73
2022-11-10T06:41:47.395Z,90.75
2022-11-10T06:44:16.811Z,91.26
2022-11-10T06:46:46.346Z,89.25
2022-11-10T06:49:15.755Z,90.16
2022-11-10T06:51:42.722Z,89.86
2022-11-10T06:54:09.870Z,90.32
2022-11-10T06:56:36.853Z,89.64
2022-11-10T06:59:07.035Z,89.72
2022-11-10T07:01:34.130Z,88.10
2022-11-10T07:04:19.585Z,88.63
2022-11-10T07:06:48.029Z,86.85
2022-11-10T07:09:17.678Z,86.70
2022-11-10T07:11:47.601Z,84.04
2022-11-10T07:14:14.547Z,82.10
2022-11-10T07:16:44.028Z,81.36
2022-11-10T07:19:10.969Z,81.33
2022-11-10T07:21:43.536Z,80.67
2022-11-10T07:24:10.691Z,78.65
2022-11-10T07:26:37.704Z,78.11
2022-11-10T07:29:06.779Z,79.31
2022-11-10T07:31:36.034Z,79.53
2022-11-10T07:34:05.897Z,78.50
2022-11-10T07:36:35.394Z,79.48
2022-11-10T07:39:02.325Z,81.40
2022-11-10T07:41:29.470Z,82.98
2022-11-10T07:43:56.438Z,84.63
2022-11-10T07:46:23.448Z,85.35
2022-11-10T07:48:54.939Z,86.48
2022-11-10T07:51:24.412Z,85.56
2022-11-10T07:53:55.893Z,86.88
2022-11-10T07:56:23.113Z,86.12
2022-11-10T07:58:54.637Z,86.04
2022-11-10T08:01:21.846Z,87.69
2022-11-10T08:03:53.653Z,87.96
2022-11-10T08:06:20.678Z,87.44
2022-11-10T08:08:47.905Z,89.10
2022-11-10T08:11:14.811Z,87.65
2022-11-10T08:13:47.342Z,86.45
2022-11-10T08:16:14.350Z,87.69
2022-11-10T08:18:41.360Z,88.81
2022-11-10T08:21:08.400Z,89.11
2022-11-10T08:23:35.383Z,88.83
2022-11-10T08:26:02.270Z,90.38
2022-11-10T08:28:31.438Z,91.32
2022-11-10T08:31:02.845Z,88.75
2022-11-10T08:33:39.251Z,86.33
2022-11-10T08:36:06.547Z,86.78
2022-11-10T08:38:35.739Z,87.34
2022-11-10T08:41:02.787Z,87.60
2022-11-10T08:43:32.212Z,87.73
2022-11-10T08:46:01.977Z,88.56
2022-11-10T08:48:29.018Z,89.39
2022-11-10T08:50:59.848Z,90.17
2022-11-10T08:53:27.077Z,89.26
2022-11-10T08:55:54.171Z,86.95
2022-11-10T08:58:24.947Z,87.36
2022-11-10T09:00:54.399Z,85.73
2022-11-10T09:03:24.803Z,86.09
2022-11-10T09:05:58.381Z,86.13
2022-11-10T09:08:26.516Z,87.13
2022-11-10T09:10:56.279Z,86.28
2022-11-10T09:13:29.958Z,85.60
2022-11-10T09:16:02.728Z,86.78
2022-11-10T09:18:34.414Z,87.74
2022-11-10T09:21:06.705Z,86.46
2022-11-10T09:23:38.167Z,87.54
2022-11-10T09:26:07.656Z,88.59
2022-11-10T09:28:34.561Z,87.48
2022-11-10T09:31:04.548Z,88.21
2022-11-10T09:33:34.067Z,87.51
2022-11-10T09:36:02.190Z,87.08
2022-11-10T09:38:29.158Z,85.24
2022-11-10T09:41:18.305Z,85.65
2022-11-10T09:44:17.670Z,84.84
2022-11-10T09:47:12.465Z,85.39
2022-11-10T09:49:57.918Z,85.18
2022-11-10T09:52:27.711Z,87.47
2022-11-10T09:55:19.687Z,86.15
2022-11-10T09:57:50.818Z,86.19
2022-11-10T10:00:18.686Z,85.18
2022-11-10T10:03:01.605Z,84.14
2022-11-10T10:05:46.579Z,84.10
2022-11-10T10:08:31.887Z,84.20
2022-11-10T10:11:53.224Z,83.32
2022-11-10T10:14:45.553Z,80.67
2022-11-10T10:17:26.177Z,77.90
2022-11-10T10:20:20.416Z,72.51
2022-11-10T10:23:02.240Z,71.65
2022-11-10T10:25:30.452Z,71.89
2022-11-10T10:28:07.086Z,72.34
2022-11-10T10:30:36.205Z,72.80
2022-11-10T10:33:19.358Z,73.74
2022-11-10T10:35:49.791Z,72.50
2022-11-10T10:38:38.112Z,73.37
2022-11-10T10:41:28.997Z,73.09
2022-11-10T10:44:00.472Z,74.08
2022-11-10T10:46:35.716Z,73.92
2022-11-10T10:49:30.027Z,76.39
2022-11-10T10:52:14.168Z,76.19
2022-11-10T10:54:41.403Z,74.96
2022-11-10T10:57:30.071Z,75.85
2022-11-10T11:00:23.919Z,75.35
2022-11-10T11:03:23.290Z,71.49
2022-11-10T11:06:19.157Z,74.35
2022-11-10T11:09:06.142Z,71.36
2022-11-10T11:11:39.370Z,71.09
2022-11-10T11:14:27.850Z,68.50
2022-11-10T11:17:22.383Z,64.83
2022-11-10T11:19:59.907Z,66.86
2022-11-10T11:22:57.040Z,68.12
2022-11-10T11:25:34.409Z,70.53
2022-11-10T11:28:26.383Z,69.38
2022-11-10T11:31:38.765Z,68.21
2022-11-10T11:34:32.892Z,66.86
2022-11-10T11:37:18.033Z,65.94
2022-11-10T11:40:23.156Z,63.79
2022-11-10T11:43:18.382Z,66.00
2022-11-10T11:46:14.507Z,66.56
2022-11-10T11:48:53.127Z,65.81
2022-11-10T11:51:30.713Z,66.62
2022-11-10T11:54:22.261Z,65.32
2022-11-10T11:56:51.953Z,68.11
2022-11-10T11:59:50.756Z,65.82
2022-11-10T12:02:56.702Z,65.59
2022-11-10T12:06:05.348Z,65.58
2022-11-10T12:09:16.886Z,68.63
2022-11-10T12:12:04.872Z,68.22
2022-11-10T12:15:17.685Z,68.17
2022-11-10T12:18:05.650Z,65.39
2022-11-10T12:20:55.439Z,65.13
2022-11-10T12:23:59.990Z,65.56
2022-11-10T12:26:50.291Z,67.79
2022-11-10T12:29:25.732Z,68.36
2022-11-10T12:32:24.209Z,67.51
2022-11-10T12:35:47.152Z,69.58
2022-11-10T12:38:20.763Z,69.31
2022-11-10T12:40:52.964Z,68.78
2022-11-10T12:43:35.294Z,68.75
2022-11-10T12:46:11.919Z,67.51
2022-11-10T12:49:20.294Z,67.73
2022-11-10T12:52:46.768Z,65.89
2022-11-10T12:55:18.666Z,64.72
2022-11-10T12:57:46.024Z,64.79
2022-11-10T13:00:32.479Z,64.44
2022-11-10T13:03:00.107Z,64.61
2022-11-10T13:05:42.129Z,58.86
2022-11-10T13:08:27.511Z,56.45
2022-11-10T13:10:59.654Z,58.03
2022-11-10T13:13:29.699Z,62.78
2022-11-10T13:16:00.634Z,62.23
2022-11-10T13:18:30.595Z,61.55
2022-11-10T13:20:59.515Z,62.92
2022-11-10T13:23:44.609Z,63.84
2022-11-10T13:26:44.718Z,64.17
2022-11-10T13:29:47.107Z,67.00
2022-11-10T13:32:14.009Z,65.99
2022-11-10T13:34:46.098Z,64.93
2022-11-10T13:37:34.939Z,65.74
2022-11-10T13:40:28.088Z,65.52
2022-11-10T13:42:57.754Z,67.83
2022-11-10T13:45:49.553Z,68.11
2022-11-10T13:48:44.939Z,68.48
2022-11-10T13:51:46.029Z,67.31
2022-11-10T13:54:24.221Z,67.36
2022-11-10T13:57:07.874Z,67.39
2022-11-10T13:59:47.814Z,67.10
2022-11-10T14:02:36.512Z,67.27
2022-11-10T14:05:09.926Z,66.95
2022-11-10T14:07:46.549Z,68.66
2022-11-10T14:10:45.653Z,68.51
2022-11-10T14:13:24.305Z,67.93
2022-11-10T14:15:54.206Z,67.91
2022-11-10T14:18:23.185Z,68.89
2022-11-10T14:20:57.872Z,68.83
2022-11-10T14:23:45.849Z,69.64
2022-11-10T14:26:35.687Z,70.23
2022-11-10T14:29:35.908Z,69.36
2022-11-10T14:32:25.172Z,69.49
2022-11-10T14:34:57.856Z,69.66
2022-11-10T14:37:30.435Z,69.73
2022-11-10T14:40:04.342Z,68.65
2022-11-10T14:42:36.030Z,69.21
2022-11-10T14:45:27.086Z,69.44
2022-11-10T14:47:58.076Z,69.99
2022-11-10T14:50:25.079Z,69.60
2022-11-10T14:53:07.438Z,70.22
2022-11-10T14:55:36.633Z,70.47
2022-11-10T14:58:15.047Z,71.51
2022-11-10T15:00:46.899Z,71.46
2022-11-10T15:03:44.178Z,72.26
2022-11-10T15:06:16.967Z,72.28
2022-11-10T15:08:46.850Z,70.99
2022-11-10T15:11:54.285Z,72.06
2022-11-10T15:14:42.458Z,73.17
2022-11-10T15:17:24.837Z,73.81
2022-11-10T15:20:00.470Z,73.26
2022-11-10T15:22:30.205Z,73.10
2022-11-10T15:25:00.913Z,73.43
2022-11-10T15:27:32.428Z,74.23
2022-11-10T15:30:02.138Z,73.03
2022-11-10T15:32:42.109Z,71.71
2022-11-10T15:35:29.190Z,71.67
2022-11-10T15:38:06.200Z,71.93
2022-11-10T15:40:42.586Z,72.62
2022-11-10T15:43:13.819Z,71.57
2022-11-10T15:45:43.024Z,71.43
2022-11-10T15:48:14.141Z,71.56
2022-11-10T15:50:44.295Z,70.76
2022-11-10T15:53:18.191Z,70.64
2022-11-10T15:55:50.423Z,70.73
2022-11-10T15:58:26.934Z,70.47
2022-11-10T16:00:56.610Z,69.80
2022-11-10T16:03:24.412Z,71.12
2022-11-10T16:05:55.975Z,69.58
2022-11-10T16:08:26.681Z,70.68
2022-11-10T16:10:56.508Z,69.84
2022-11-10T16:13:32.566Z,69.73
2022-11-10T16:16:00.506Z,69.50
2022-11-10T16:18:31.697Z,70.49
2022-11-10T16:20:58.982Z,70.60
2022-11-10T16:23:28.803Z,69.87
2022-11-10T16:25:57.448Z,69.20
2022-11-10T16:28:29.426Z,69.87
2022-11-10T16:30:56.492Z,70.46
2022-11-10T16:33:25.159Z,70.60
2022-11-10T16:35:59.746Z,70.20
2022-11-10T16:38:29.992Z,71.47
2022-11-10T16:41:06.133Z,71.64
2022-11-10T16:43:33.357Z,72.99
2022-11-10T16:46:05.814Z,72.04
2022-11-10T16:48:35.681Z,73.70
2022-11-10T16:51:05.310Z,73.34
2022-11-10T16:53:32.331Z,72.48
2022-11-10T16:56:01.843Z,72.95
2022-11-10T16:58:28.775Z,73.23
2022-11-10T17:01:01.243Z,73.08
2022-11-10T17:03:36.494Z,72.77
2022-11-10T17:06:05.284Z,72.50
2022-11-10T17:08:35.645Z,71.97
2022-11-10T17:11:02.635Z,71.53
2022-11-10T17:13:29.704Z,71.34
2022-11-10T17:16:14.983Z,71.78
2022-11-10T17:18:42.138Z,71.89
2022-11-10T17:21:09.334Z,71.41
2022-11-10T17:23:36.421Z,72.14
2022-11-10T17:26:03.579Z,73.05
2022-11-10T17:28:33.067Z,72.54
2022-11-10T17:31:04.549Z,72.78
2022-11-10T17:33:31.558Z,72.18
2022-11-10T17:36:02.499Z,72.32
2022-11-10T17:38:33.348Z,72.27
2022-11-10T17:41:02.329Z,73.00
2022-11-10T17:43:31.881Z,72.16
2022-11-10T17:45:58.921Z,71.95
2022-11-10T17:48:25.935Z,72.50
2022-11-10T17:50:55.161Z,73.10
2022-11-10T17:53:26.197Z,72.54
2022-11-10T17:55:56.307Z,72.26
2022-11-10T17:58:23.540Z,71.35
2022-11-10T18:00:50.829Z,70.90
2022-11-10T18:03:21.044Z,71.41
2022-11-10T18:05:48.346Z,73.21
2022-11-10T18:08:16.833Z,73.09
2022-11-10T18:10:52.173Z,73.51
2022-11-10T18:13:21.903Z,73.66
2022-11-10T18:15:49.192Z,73.52
2022-11-10T18:18:18.043Z,74.11
2022-11-10T18:20:45.759Z,73.25
2022-11-10T18:23:15.250Z,72.40
2022-11-10T18:25:43.171Z,73.17
2022-11-10T18:28:16.121Z,73.73
2022-11-10T18:30:43.264Z,73.17
2022-11-10T18:33:12.248Z,72.98
2022-11-10T18:35:40.500Z,72.98
2022-11-10T18:38:09.636Z,73.14
2022-11-10T18:40:36.592Z,73.22
2022-11-10T18:43:07.473Z,73.32
2022-11-10T18:45:39.299Z,73.63
2022-11-10T18:48:06.846Z,73.10
2022-11-10T18:50:39.608Z,74.24
2022-11-10T18:53:08.807Z,73.71
2022-11-10T18:55:35.670Z,73.83
2022-11-10T18:58:02.748Z,74.04
2022-11-10T19:00:34.384Z,72.97
2022-11-10T19:03:01.447Z,72.50
2022-11-10T19:05:29.070Z,72.04
2022-11-10T19:07:56.037Z,70.96
2022-11-10T19:10:25.158Z,71.58
2022-11-10T19:12:54.250Z,72.58
2022-11-10T19:15:21.227Z,72.44
2022-11-10T19:17:48.054Z,71.65
2022-11-10T19:20:20.502Z,71.15
2022-11-10T19:22:47.421Z,71.82
2022-11-10T19:25:14.485Z,71.85
2022-11-10T19:27:41.447Z,70.20
2022-11-10T19:30:09.333Z,70.81
2022-11-10T19:32:36.305Z,71.11
2022-11-10T19:35:04.343Z,70.85
2022-11-10T19:37:34.875Z,71.52
2022-11-10T19:40:02.369Z,71.85
2022-11-10T19:42:29.204Z,71.87
2022-11-10T19:44:56.189Z,71.18
2022-11-10T19:47:23.107Z,70.10
2022-11-10T19:49:52.572Z,70.69
2022-11-10T19:52:22.013Z,70.75
2022-11-10T19:54:51.099Z,70.39
2022-11-10T19:57:18.093Z,69.52
2022-11-10T19:59:47.234Z,70.13
2022-11-10T20:02:16.262Z,70.15
2022-11-10T20:05:01.342Z,69.29
2022-11-10T20:07:46.780Z,69.99
2022-11-10T20:10:15.976Z,69.02
2022-11-10T20:12:43.140Z,68.83
2022-11-10T20:15:11.311Z,70.02
2022-11-10T20:17:38.329Z,69.48
2022-11-10T20:20:06.291Z,69.49
2022-11-10T20:22:33.325Z,68.90
2022-11-10T20:25:00.579Z,69.32
2022-11-10T20:27:27.572Z,68.90
2022-11-10T20:29:57.153Z,69.35
2022-11-10T20:32:25.744Z,69.31
2022-11-10T20:34:52.768Z,68.75
2022-11-10T20:37:24.993Z,69.04
2022-11-10T20:39:51.896Z,68.34
2022-11-10T20:42:18.883Z,68.73
2022-11-10T20:44:45.808Z,69.49
2022-11-10T20:47:12.818Z,68.92
2022-11-10T20:49:39.757Z,69.04
2022-11-10T20:52:06.735Z,67.91
2022-11-10T20:54:36.140Z,68.47
2022-11-10T20:57:05.498Z,68.92
2022-11-10T20:59:32.442Z,68.85
2022-11-10T21:01:59.352Z,68.72
2022-11-10T21:04:28.577Z,68.51
2022-11-10T21:07:00.541Z,69.37
2022-11-10T21:09:27.775Z,69.17
2022-11-10T21:12:13.290Z,69.11
2022-11-10T21:14:40.332Z,69.13
2022-11-10T21:17:10.288Z,70.15
2022-11-10T21:19:37.188Z,69.39
2022-11-10T21:22:06.699Z,68.84
2022-11-10T21:24:39.631Z,70.13
2022-11-10T21:27:12.131Z,70.79
2022-11-10T21:29:42.372Z,69.49
2022-11-10T21:32:14.278Z,70.37
2022-11-10T21:34:44.224Z,70.43
2022-11-10T21:37:13.587Z,70.67
2022-11-10T21:39:42.231Z,70.40
2022-11-10T21:42:11.611Z,71.19
2022-11-10T21:44:43.444Z,72.31
2022-11-10T21:47:15.092Z,73.69
2022-11-10T21:49:44.126Z,74.62
2022-11-10T21:52:13.525Z,73.46
2022-11-10T21:54:40.558Z,73.44
2022-11-10T21:57:07.528Z,72.78
2022-11-10T21:59:36.866Z,73.20
2022-11-10T22:02:06.482Z,73.92
2022-11-10T22:04:33.757Z,72.75
2022-11-10T22:07:18.942Z,73.49
2022-11-10T22:10:07.122Z,73.70
2022-11-10T22:12:55.055Z,72.39
2022-11-10T22:15:40.913Z,72.97
2022-11-10T22:18:35.606Z,71.75
2022-11-10T22:21:04.686Z,72.89
2022-11-10T22:23:50.358Z,72.00
2022-11-10T22:26:20.956Z,73.36
2022-11-10T22:28:52.552Z,74.76
2022-11-10T22:31:24.134Z,74.50
2022-11-10T22:33:53.222Z,74.72
2022-11-10T22:36:21.728Z,73.78
2022-11-10T22:38:49.705Z,75.76
2022-11-10T22:41:35.988Z,74.57
2022-11-10T22:44:06.248Z,73.98
2022-11-10T22:46:39.050Z,73.77
2022-11-10T22:49:09.696Z,73.97
2022-11-10T22:51:38.715Z,74.85
2022-11-10T22:54:11.968Z,75.28
2022-11-10T22:56:39.432Z,75.33
2022-11-10T22:59:06.911Z,75.77
2022-11-10T23:01:35.104Z,76.15
2022-11-10T23:04:02.910Z,76.09
2022-11-10T23:06:30.881Z,75.05
2022-11-10T23:08:58.925Z,74.77
2022-11-10T23:11:32.057Z,75.71
2022-11-10T23:13:59.162Z,76.70
2022-11-10T23:16:33.383Z,76.35
2022-11-10T23:19:00.374Z,76.03
2022-11-10T23:21:33.074Z,76.54
2022-11-10T23:24:02.100Z,76.65
2022-11-10T23:26:34.923Z,75.93
2022-11-10T23:29:01.905Z,74.27
2022-11-10T23:31:31.313Z,74.82
2022-11-10T23:34:00.285Z,75.37
2022-11-10T23:36:27.784Z,75.15
2022-11-10T23:38:57.265Z,75.77
2022-11-10T23:41:26.043Z,76.08
2022-11-10T23:43:58.198Z,76.70
2022-11-10T23:46:25.190Z,75.27
2022-11-10T23:48:52.186Z,76.20
2022-11-10T23:51:24.814Z,76.15
2022-11-10T23:53:51.700Z,75.98
2022-11-10T23:56:22.578Z,76.80
2022-11-10T23:58:49.411Z,77.13
